createdAt,value
2024-01-31T00:01:53.161Z,101302.50
2024-01-31T00:04:19.753Z,101302.28
2024-01-31T00:06:50.879Z,101298.69
2024-01-31T00:09:17.285Z,101299.69
2024-01-31T00:11:43.770Z,101299.81
2024-01-31T00:14:11.132Z,101298.88
2024-01-31T00:16:37.798Z,101299.72
2024-01-31T00:19:04.353Z,101306.69
2024-01-31T00:21:30.827Z,101305.09
2024-01-31T00:23:58.114Z,101305.91
2024-01-31T00:26:24.546Z,101303.28
2024-01-31T00:28:50.991Z,101309.31
2024-01-31T00:31:18.253Z,101307.59
2024-01-31T00:33:44.776Z,101304.06
2024-01-31T00:36:11.249Z,101313.66
2024-01-31T00:38:37.673Z,101309.44
2024-01-31T00:41:05.633Z,101317.78
2024-01-31T00:43:32.076Z,101305.63
2024-01-31T00:45:58.584Z,101316.34
2024-01-31T00:48:25.156Z,101318.84
2024-01-31T00:50:51.691Z,101323.41
2024-01-31T00:53:18.114Z,101323.16
2024-01-31T00:55:44.659Z,101310.06
2024-01-31T00:58:11.191Z,101310.66
2024-01-31T01:00:37.706Z,101326.94
2024-01-31T01:03:04.175Z,101321.88
2024-01-31T01:05:30.637Z,101315.81
2024-01-31T01:07:57.065Z,101324.59
2024-01-31T01:10:23.519Z,101309.44
2024-01-31T01:12:50.117Z,101308.53
2024-01-31T01:15:20.045Z,101320.75
2024-01-31T01:17:46.527Z,101323.59
2024-01-31T01:20:13.505Z,101320.00
2024-01-31T01:22:40.454Z,101322.53
2024-01-31T01:25:07.319Z,101322.63
2024-01-31T01:27:33.820Z,101321.69
2024-01-31T01:30:00.291Z,101326.00
2024-01-31T01:32:26.972Z,101315.53
2024-01-31T01:34:53.448Z,101325.88
2024-01-31T01:37:20.392Z,101326.66
2024-01-31T01:39:47.001Z,101323.19
2024-01-31T01:42:13.504Z,101330.25
2024-01-31T01:44:46.433Z,101318.94
2024-01-31T01:47:15.141Z,101329.31
2024-01-31T01:49:41.917Z,101321.47
2024-01-31T01:52:10.262Z,101324.03
2024-01-31T01:54:38.212Z,101322.19
2024-01-31T01:57:06.694Z,101321.28
2024-01-31T01:59:35.352Z,101318.47
2024-01-31T02:02:02.432Z,101319.38
2024-01-31T02:04:32.067Z,101321.94
2024-01-31T02:06:59.004Z,101328.06
2024-01-31T02:09:27.255Z,101323.75
2024-01-31T02:11:53.791Z,101321.00
2024-01-31T02:14:20.240Z,101322.69
2024-01-31T02:16:46.833Z,101319.03
2024-01-31T02:19:13.681Z,101324.41
2024-01-31T02:21:44.295Z,101328.84
2024-01-31T02:24:11.745Z,101325.25
2024-01-31T02:26:38.173Z,101333.88
2024-01-31T02:29:04.586Z,101326.88
2024-01-31T02:31:31.032Z,101325.09
2024-01-31T02:33:57.558Z,101337.34
2024-01-31T02:36:24.000Z,101339.03
2024-01-31T02:38:50.424Z,101331.03
2024-01-31T02:41:16.881Z,101330.13
2024-01-31T02:43:43.451Z,101337.06
2024-01-31T02:46:09.889Z,101324.88
2024-01-31T02:48:36.467Z,101327.16
2024-01-31T02:51:02.930Z,101328.00
2024-01-31T02:53:29.326Z,101331.56
2024-01-31T02:55:55.721Z,101333.22
2024-01-31T02:58:22.196Z,101335.09
2024-01-31T03:00:48.610Z,101335.84
2024-01-31T03:03:15.026Z,101341.88
2024-01-31T03:05:41.547Z,101330.41
2024-01-31T03:08:08.032Z,101338.34
2024-01-31T03:10:34.516Z,101336.50
2024-01-31T03:13:00.999Z,101341.75
2024-01-31T03:15:27.433Z,101329.56
2024-01-31T03:17:53.834Z,101324.19
2024-01-31T03:20:20.277Z,101329.28
2024-01-31T03:22:47.073Z,101337.91
2024-01-31T03:25:13.564Z,101338.63
2024-01-31T03:27:40.071Z,101345.69
2024-01-31T03:30:09.316Z,101343.00
2024-01-31T03:32:37.589Z,101347.38
2024-01-31T03:35:04.638Z,101344.84
2024-01-31T03:37:31.141Z,101348.38
2024-01-31T03:39:57.723Z,101353.63
2024-01-31T03:42:24.164Z,101350.94
2024-01-31T03:44:50.573Z,101357.03
2024-01-31T03:47:17.106Z,101355.25
2024-01-31T03:49:43.650Z,101355.25
2024-01-31T03:52:10.132Z,101350.09
2024-01-31T03:54:36.592Z,101340.38
2024-01-31T03:57:02.993Z,101351.72
2024-01-31T03:59:29.555Z,101341.03
2024-01-31T04:01:56.080Z,101344.56
2024-01-31T04:04:22.579Z,101348.97
2024-01-31T04:06:49.021Z,101356.88
2024-01-31T04:09:15.578Z,101357.66
2024-01-31T04:11:41.978Z,101364.59
2024-01-31T04:14:08.405Z,101360.28
2024-01-31T04:16:34.870Z,101353.31
2024-01-31T04:19:01.534Z,101343.63
2024-01-31T04:21:28.145Z,101345.41
2024-01-31T04:23:54.621Z,101345.34
2024-01-31T04:26:21.080Z,101360.13
2024-01-31T04:28:47.592Z,101360.00
2024-01-31T04:31:17.365Z,101368.78
2024-01-31T04:33:44.044Z,101363.47
2024-01-31T04:36:10.700Z,101364.94
2024-01-31T04:38:37.167Z,101362.19
2024-01-31T04:41:04.428Z,101369.34
2024-01-31T04:43:31.310Z,101373.75
2024-01-31T04:45:57.871Z,101375.72
2024-01-31T04:48:24.489Z,101380.94
2024-01-31T04:50:51.466Z,101386.19
2024-01-31T04:53:18.311Z,101400.06
2024-01-31T04:55:45.899Z,101396.66
2024-01-31T04:58:16.177Z,101401.97
2024-01-31T05:00:42.749Z,101395.72
2024-01-31T05:03:09.502Z,101403.59
2024-01-31T05:05:37.433Z,101396.66
2024-01-31T05:08:04.212Z,101394.09
2024-01-31T05:10:33.309Z,101381.94
2024-01-31T05:12:59.800Z,101394.09
2024-01-31T05:15:26.374Z,101394.25
2024-01-31T05:17:52.821Z,101399.63
2024-01-31T05:20:19.422Z,101402.34
2024-01-31T05:22:46.005Z,101405.84
2024-01-31T05:25:12.482Z,101398.94
2024-01-31T05:27:38.957Z,101402.63
2024-01-31T05:30:06.116Z,101405.22
2024-01-31T05:32:32.841Z,101407.06
2024-01-31T05:34:59.429Z,101405.38
2024-01-31T05:37:25.981Z,101398.41
2024-01-31T05:39:52.400Z,101385.59
2024-01-31T05:42:18.800Z,101391.81
2024-01-31T05:44:45.235Z,101398.06
2024-01-31T05:47:11.637Z,101398.19
2024-01-31T05:49:38.343Z,101399.09
2024-01-31T05:52:05.329Z,101407.75
2024-01-31T05:54:31.758Z,101400.03
2024-01-31T05:56:58.173Z,101393.97
2024-01-31T05:59:26.529Z,101396.63
2024-01-31T06:01:53.158Z,101396.78
2024-01-31T06:04:19.726Z,101389.84
2024-01-31T06:06:46.243Z,101400.44
2024-01-31T06:09:13.675Z,101396.19
2024-01-31T06:11:40.358Z,101399.00
2024-01-31T06:14:07.523Z,101400.72
2024-01-31T06:16:34.426Z,101397.19
2024-01-31T06:19:02.099Z,101393.06
2024-01-31T06:21:28.560Z,101406.09
2024-01-31T06:23:56.658Z,101401.84
2024-01-31T06:26:23.861Z,101392.22
2024-01-31T06:28:50.421Z,101389.47
2024-01-31T06:31:25.711Z,101389.31
2024-01-31T06:33:52.578Z,101397.97
2024-01-31T06:36:20.692Z,101395.97
2024-01-31T06:38:48.364Z,101389.56
2024-01-31T06:41:18.976Z,101385.22
2024-01-31T06:43:46.153Z,101388.78
2024-01-31T06:46:12.703Z,101400.94
2024-01-31T06:48:39.248Z,101393.16
2024-01-31T06:51:06.170Z,101404.63
2024-01-31T06:53:32.613Z,101403.56
2024-01-31T06:56:00.847Z,101407.81
2024-01-31T06:58:27.684Z,101413.38
2024-01-31T07:00:56.733Z,101409.13
2024-01-31T07:03:23.311Z,101406.28
2024-01-31T07:05:49.727Z,101414.22
2024-01-31T07:08:16.167Z,101412.72
2024-01-31T07:10:42.719Z,101428.47
2024-01-31T07:13:09.242Z,101417.16
2024-01-31T07:15:35.960Z,101416.31
2024-01-31T07:18:02.496Z,101422.41
2024-01-31T07:20:29.163Z,101424.13
2024-01-31T07:22:55.555Z,101420.44
2024-01-31T07:25:22.020Z,101436.19
2024-01-31T07:27:48.518Z,101438.75
2024-01-31T07:30:15.265Z,101449.09
2024-01-31T07:32:41.734Z,101452.50
2024-01-31T07:35:08.995Z,101447.28
2024-01-31T07:37:37.760Z,101455.88
2024-01-31T07:40:08.250Z,101460.78
2024-01-31T07:42:37.179Z,101459.69
2024-01-31T07:45:05.495Z,101462.81
2024-01-31T07:47:31.966Z,101466.19
2024-01-31T07:49:58.532Z,101470.44
2024-01-31T07:52:25.048Z,101469.31
2024-01-31T07:54:51.499Z,101465.63
2024-01-31T07:57:17.922Z,101472.50
2024-01-31T07:59:44.395Z,101474.13
2024-01-31T08:02:10.894Z,101472.28
2024-01-31T08:04:37.401Z,101474.78
2024-01-31T08:07:04.071Z,101466.78
2024-01-31T08:09:30.767Z,101465.69
2024-01-31T08:11:57.245Z,101473.28
2024-01-31T08:14:23.762Z,101470.50
2024-01-31T08:16:52.270Z,101470.34
2024-01-31T08:19:19.100Z,101470.13
2024-01-31T08:21:45.590Z,101471.69
2024-01-31T08:24:12.077Z,101469.72
2024-01-31T08:26:38.824Z,101461.75
2024-01-31T08:29:11.530Z,101460.59
2024-01-31T08:31:46.568Z,101460.31
2024-01-31T08:34:14.222Z,101464.47
2024-01-31T08:36:40.996Z,101461.78
2024-01-31T08:39:09.552Z,101463.09
2024-01-31T08:41:36.948Z,101462.31
2024-01-31T08:44:03.352Z,101466.34
2024-01-31T08:46:29.856Z,101477.69
2024-01-31T08:48:56.407Z,101476.53
2024-01-31T08:51:23.706Z,101475.31
2024-01-31T08:53:50.179Z,101484.00
2024-01-31T08:56:16.774Z,101488.56
2024-01-31T08:58:43.471Z,101488.72
2024-01-31T09:01:10.177Z,101481.66
2024-01-31T09:03:36.705Z,101485.00
2024-01-31T09:06:03.306Z,101483.28
2024-01-31T09:08:29.890Z,101486.63
2024-01-31T09:10:59.012Z,101483.97
2024-01-31T09:13:25.939Z,101493.38
2024-01-31T09:15:52.665Z,101484.44
2024-01-31T09:18:19.148Z,101487.81
2024-01-31T09:20:45.649Z,101492.91
2024-01-31T09:23:12.067Z,101495.38
2024-01-31T09:25:38.588Z,101492.59
2024-01-31T09:28:05.207Z,101488.13
2024-01-31T09:30:31.638Z,101493.06
2024-01-31T09:32:58.205Z,101497.25
2024-01-31T09:35:24.680Z,101499.94
2024-01-31T09:37:51.280Z,101502.34
2024-01-31T09:40:19.236Z,101496.44
2024-01-31T09:42:46.466Z,101505.22
2024-01-31T09:45:13.459Z,101503.38
2024-01-31T09:47:41.812Z,101500.69
2024-01-31T09:50:11.251Z,101505.78
2024-01-31T09:52:41.084Z,101496.97
2024-01-31T09:55:12.337Z,101504.63
2024-01-31T09:57:43.163Z,101501.22
2024-01-31T10:00:10.214Z,101500.91
2024-01-31T10:02:37.242Z,101504.16
2024-01-31T10:05:04.558Z,101511.75
2024-01-31T10:07:32.196Z,101503.66
2024-01-31T10:09:58.761Z,101503.50
2024-01-31T10:12:28.100Z,101494.66
2024-01-31T10:14:56.101Z,101499.59
2024-01-31T10:17:23.581Z,101494.25
2024-01-31T10:19:50.748Z,101492.47
2024-01-31T10:22:17.621Z,101494.16
2024-01-31T10:24:49.413Z,101487.06
2024-01-31T10:27:15.931Z,101479.25
2024-01-31T10:29:44.034Z,101474.69
2024-01-31T10:32:10.929Z,101472.13
2024-01-31T10:34:48.349Z,101464.19
2024-01-31T10:37:53.089Z,101459.75
2024-01-31T10:40:14.538Z,101467.38
2024-01-31T10:42:42.013Z,101474.19
2024-01-31T10:45:09.279Z,101467.91
2024-01-31T10:47:36.062Z,101468.59
2024-01-31T10:50:02.621Z,101467.66
2024-01-31T10:52:34.000Z,101467.47
2024-01-31T10:55:04.966Z,101475.19
2024-01-31T10:57:32.743Z,101464.69
2024-01-31T11:00:00.434Z,101454.94
2024-01-31T11:02:32.341Z,101457.56
2024-01-31T11:05:01.820Z,101456.78
2024-01-31T11:07:29.705Z,101462.81
2024-01-31T11:09:57.777Z,101452.31
2024-01-31T11:12:28.902Z,101459.41
2024-01-31T11:14:56.868Z,101451.34
2024-01-31T11:17:24.256Z,101452.44
2024-01-31T11:19:53.531Z,101441.69
2024-01-31T11:22:21.101Z,101442.59
2024-01-31T11:24:49.807Z,101445.34
2024-01-31T11:27:18.572Z,101441.69
2024-01-31T11:29:47.601Z,101432.25
2024-01-31T11:32:14.189Z,101428.53
2024-01-31T11:34:41.206Z,101431.91
2024-01-31T11:37:08.373Z,101437.75
2024-01-31T11:39:35.247Z,101429.00
2024-01-31T11:42:02.020Z,101425.28
2024-01-31T11:44:30.824Z,101421.25
2024-01-31T11:46:57.852Z,101428.66
2024-01-31T11:49:24.404Z,101427.00
2024-01-31T11:51:50.855Z,101425.44
2024-01-31T11:54:17.568Z,101434.41
2024-01-31T11:56:44.355Z,101446.25
2024-01-31T11:59:11.104Z,101449.53
2024-01-31T12:01:37.525Z,101436.50
2024-01-31T12:04:04.071Z,101436.16
2024-01-31T12:06:31.339Z,101427.47
2024-01-31T12:08:58.081Z,101426.94
2024-01-31T12:11:24.740Z,101417.25
2024-01-31T12:13:51.469Z,101421.84
2024-01-31T12:16:18.291Z,101422.81
2024-01-31T12:18:44.869Z,101430.16
2024-01-31T12:21:11.581Z,101436.94
2024-01-31T12:23:38.417Z,101435.91
2024-01-31T12:26:05.195Z,101435.44
2024-01-31T12:28:31.708Z,101439.75
2024-01-31T12:30:58.253Z,101434.31
2024-01-31T12:33:24.812Z,101425.88
2024-01-31T12:35:51.572Z,101430.75
2024-01-31T12:38:18.105Z,101423.03
2024-01-31T12:40:44.512Z,101420.78
2024-01-31T12:43:11.501Z,101403.84
2024-01-31T12:45:38.484Z,101405.34
2024-01-31T12:48:05.810Z,101405.53
2024-01-31T12:50:32.716Z,101398.84
2024-01-31T12:52:59.145Z,101395.00
2024-01-31T12:55:25.567Z,101400.19
2024-01-31T12:57:51.975Z,101404.16
2024-01-31T13:00:18.754Z,101401.63
2024-01-31T13:02:45.274Z,101400.00
2024-01-31T13:05:13.037Z,101403.47
2024-01-31T13:07:39.917Z,101405.16
2024-01-31T13:10:08.065Z,101387.31
2024-01-31T13:12:34.479Z,101386.13
2024-01-31T13:15:01.096Z,101373.03
2024-01-31T13:17:27.755Z,101371.72
2024-01-31T13:19:54.339Z,101370.59
2024-01-31T13:22:20.972Z,101363.91
2024-01-31T13:24:48.152Z,101356.69
2024-01-31T13:27:14.628Z,101359.31
2024-01-31T13:29:41.239Z,101350.47
2024-01-31T13:32:07.728Z,101350.09
2024-01-31T13:34:35.136Z,101342.50
2024-01-31T13:37:02.171Z,101337.22
2024-01-31T13:39:28.659Z,101321.25
2024-01-31T13:41:56.888Z,101322.81
2024-01-31T13:44:23.509Z,101326.97
2024-01-31T13:46:50.825Z,101324.94
2024-01-31T13:49:19.913Z,101320.97
2024-01-31T13:51:46.412Z,101324.75
2024-01-31T13:54:13.218Z,101324.94
2024-01-31T13:56:39.898Z,101312.69
2024-01-31T13:59:06.484Z,101320.50
2024-01-31T14:01:33.004Z,101303.88
2024-01-31T14:03:59.597Z,101296.50
2024-01-31T14:06:26.503Z,101297.34
2024-01-31T14:08:53.049Z,101304.59
2024-01-31T14:11:21.174Z,101292.56
2024-01-31T14:13:47.897Z,101306.66
2024-01-31T14:16:15.557Z,101319.81
2024-01-31T14:18:42.680Z,101313.63
2024-01-31T14:21:09.811Z,101309.22
2024-01-31T14:23:43.621Z,101297.84
2024-01-31T14:26:11.339Z,101296.13
2024-01-31T14:28:40.962Z,101304.59
2024-01-31T14:31:08.795Z,101303.75
2024-01-31T14:33:36.039Z,101309.03
2024-01-31T14:36:03.729Z,101304.13
2024-01-31T14:38:30.265Z,101301.97
2024-01-31T14:40:56.719Z,101287.31
2024-01-31T14:43:23.424Z,101290.84
2024-01-31T14:45:49.852Z,101292.94
2024-01-31T14:48:17.294Z,101289.56
2024-01-31T14:50:43.869Z,101281.06
2024-01-31T14:53:10.605Z,101281.28
2024-01-31T14:55:37.114Z,101273.38
2024-01-31T14:58:04.343Z,101278.56
2024-01-31T15:00:31.057Z,101280.69
2024-01-31T15:02:57.543Z,101272.25
2024-01-31T15:05:24.159Z,101279.03
2024-01-31T15:07:50.653Z,101281.00
2024-01-31T15:10:17.242Z,101290.97
2024-01-31T15:12:43.679Z,101286.72
2024-01-31T15:15:10.786Z,101286.72
2024-01-31T15:17:40.563Z,101283.53
2024-01-31T15:20:09.080Z,101283.53
2024-01-31T15:22:36.322Z,101275.72
2024-01-31T15:25:03.851Z,101282.69
2024-01-31T15:27:30.676Z,101287.94
2024-01-31T15:29:57.235Z,101276.56
2024-01-31T15:32:24.020Z,101276.69
2024-01-31T15:34:50.769Z,101277.53
2024-01-31T15:37:17.218Z,101277.59
2024-01-31T15:39:43.751Z,101276.75
2024-01-31T15:42:10.371Z,101270.66
2024-01-31T15:44:37.294Z,101264.53
2024-01-31T15:47:04.247Z,101268.09
2024-01-31T15:49:31.706Z,101271.31
2024-01-31T15:51:59.100Z,101265.66
2024-01-31T15:54:25.891Z,101249.22
2024-01-31T15:56:53.733Z,101243.84
2024-01-31T15:59:20.416Z,101244.97
2024-01-31T16:01:47.093Z,101243.09
2024-01-31T16:04:13.647Z,101223.91
2024-01-31T16:06:56.864Z,101238.22
2024-01-31T16:09:25.163Z,101243.56
2024-01-31T16:11:52.737Z,101233.03
2024-01-31T16:14:19.636Z,101232.38
2024-01-31T16:16:46.331Z,101226.09
2024-01-31T16:19:13.756Z,101225.22
2024-01-31T16:21:43.419Z,101226.94
2024-01-31T16:24:12.227Z,101225.97
2024-01-31T16:26:40.751Z,101217.41
2024-01-31T16:29:07.665Z,101206.31
2024-01-31T16:31:34.145Z,101212.00
2024-01-31T16:34:00.703Z,101199.97
2024-01-31T16:36:27.245Z,101186.59
2024-01-31T16:38:53.836Z,101191.19
2024-01-31T16:41:22.757Z,101209.09
2024-01-31T16:43:49.900Z,101206.56
2024-01-31T16:46:16.550Z,101211.25
2024-01-31T16:48:44.045Z,101200.91
2024-01-31T16:51:13.789Z,101203.66
2024-01-31T16:53:40.297Z,101213.34
2024-01-31T16:56:06.934Z,101214.41
2024-01-31T16:58:33.470Z,101210.91
2024-01-31T17:00:59.925Z,101201.50
2024-01-31T17:03:26.896Z,101201.50
2024-01-31T17:05:53.496Z,101186.75
2024-01-31T17:08:20.091Z,101191.16
2024-01-31T17:10:49.649Z,101181.09
2024-01-31T17:13:20.867Z,101172.44
2024-01-31T17:15:47.751Z,101175.94
2024-01-31T17:18:18.940Z,101168.03
2024-01-31T17:20:49.166Z,101168.03
2024-01-31T17:23:16.871Z,101172.44
2024-01-31T17:25:44.143Z,101175.16
2024-01-31T17:28:11.167Z,101164.84
2024-01-31T17:30:41.595Z,101155.63
2024-01-31T17:33:10.083Z,101156.53
2024-01-31T17:35:37.047Z,101134.75
2024-01-31T17:38:03.917Z,101128.44
2024-01-31T17:40:30.381Z,101127.03
2024-01-31T17:42:57.152Z,101131.34
2024-01-31T17:45:23.610Z,101116.78
2024-01-31T17:47:51.009Z,101109.16
2024-01-31T17:50:18.240Z,101105.06
2024-01-31T17:52:45.014Z,101110.53
2024-01-31T17:55:13.269Z,101100.19
2024-01-31T17:57:39.796Z,101109.31
2024-01-31T18:00:06.875Z,101110.34
2024-01-31T18:02:33.436Z,101109.44
2024-01-31T18:05:01.013Z,101107.00
2024-01-31T18:07:27.610Z,101112.44
2024-01-31T18:09:54.119Z,101106.31
2024-01-31T18:12:27.842Z,101105.66
2024-01-31T18:14:55.346Z,101106.63
2024-01-31T18:17:21.885Z,101103.22
2024-01-31T18:19:48.512Z,101109.44
2024-01-31T18:22:18.218Z,101102.47
2024-01-31T18:24:44.687Z,101102.66
2024-01-31T18:27:11.501Z,101107.94
2024-01-31T18:29:38.680Z,101101.94
2024-01-31T18:32:06.214Z,101100.22
2024-01-31T18:34:33.471Z,101102.03
2024-01-31T18:37:02.700Z,101095.84
2024-01-31T18:39:29.499Z,101092.34
2024-01-31T18:41:56.164Z,101090.75
2024-01-31T18:44:22.941Z,101090.84
2024-01-31T18:46:49.371Z,101082.19
2024-01-31T18:49:18.923Z,101071.03
2024-01-31T18:51:45.698Z,101073.78
2024-01-31T18:54:12.290Z,101066.81
2024-01-31T18:56:39.396Z,101068.59
2024-01-31T18:59:07.290Z,101057.31
2024-01-31T19:01:34.460Z,101061.16
2024-01-31T19:04:01.004Z,101046.34
2024-01-31T19:06:27.611Z,101045.94
2024-01-31T19:08:54.608Z,101043.31
2024-01-31T19:11:24.488Z,101042.19
2024-01-31T19:13:58.294Z,101029.97
2024-01-31T19:16:25.277Z,101031.69
2024-01-31T19:18:54.549Z,101021.69
2024-01-31T19:21:21.206Z,101018.13
2024-01-31T19:23:48.050Z,101020.09
2024-01-31T19:26:14.767Z,101020.47
2024-01-31T19:28:41.538Z,101020.19
2024-01-31T19:31:07.954Z,101006.28
2024-01-31T19:33:36.401Z,100996.72
2024-01-31T19:36:03.177Z,100996.16
2024-01-31T19:38:29.772Z,100990.47
2024-01-31T19:40:56.256Z,100983.72
2024-01-31T19:43:22.716Z,100990.53
2024-01-31T19:45:49.140Z,100998.63
2024-01-31T19:48:15.754Z,100998.84
2024-01-31T19:50:42.333Z,100997.91
2024-01-31T19:53:12.058Z,100996.78
2024-01-31T19:55:38.414Z,100980.56
2024-01-31T19:58:07.053Z,100967.13
2024-01-31T20:00:34.061Z,100957.84
2024-01-31T20:03:00.592Z,100962.25
2024-01-31T20:05:27.264Z,100956.59
2024-01-31T20:07:56.128Z,100953.03
2024-01-31T20:10:23.209Z,100957.47
2024-01-31T20:12:49.632Z,100955.03
2024-01-31T20:15:16.155Z,100955.47
2024-01-31T20:17:42.802Z,100950.75
2024-01-31T20:20:09.704Z,100953.09
2024-01-31T20:22:37.934Z,100945.47
2024-01-31T20:25:05.275Z,100953.88
2024-01-31T20:27:33.091Z,100956.50
2024-01-31T20:29:59.669Z,100949.16
2024-01-31T20:32:26.248Z,100955.44
2024-01-31T20:34:52.866Z,100955.69
2024-01-31T20:37:19.374Z,100942.75
2024-01-31T20:39:45.837Z,100939.63
2024-01-31T20:42:12.631Z,100938.03
2024-01-31T20:44:39.835Z,100937.28
2024-01-31T20:47:06.453Z,100928.91
2024-01-31T20:49:33.198Z,100917.09
2024-01-31T20:51:59.656Z,100902.38
2024-01-31T20:54:26.126Z,100902.38
2024-01-31T20:56:52.870Z,100890.38
2024-01-31T20:59:19.322Z,100862.63
2024-01-31T21:01:46.589Z,100852.31
2024-01-31T21:04:13.308Z,100853.59
2024-01-31T21:06:39.916Z,100849.28
2024-01-31T21:09:06.481Z,100844.22
2024-01-31T21:11:35.683Z,100841.53
2024-01-31T21:14:02.123Z,100822.50
2024-01-31T21:16:28.703Z,100810.31
2024-01-31T21:18:55.319Z,100806.38
2024-01-31T21:21:22.124Z,100813.47
2024-01-31T21:23:48.706Z,100811.13
2024-01-31T21:26:15.258Z,100808.41
2024-01-31T21:28:41.685Z,100794.38
2024-01-31T21:31:08.101Z,100792.00
2024-01-31T21:33:34.759Z,100785.09
2024-01-31T21:36:01.577Z,100782.66
2024-01-31T21:38:28.136Z,100782.56
2024-01-31T21:40:55.847Z,100777.47
2024-01-31T21:43:22.581Z,100774.28
2024-01-31T21:45:49.143Z,100770.75
2024-01-31T21:48:15.745Z,100763.16
2024-01-31T21:50:42.367Z,100752.19
2024-01-31T21:53:08.801Z,100758.28
2024-01-31T21:55:37.670Z,100751.50
2024-01-31T21:58:04.599Z,100751.50
2024-01-31T22:00:31.134Z,100751.66
2024-01-31T22:02:57.953Z,100750.50
2024-01-31T22:05:24.750Z,100741.72
2024-01-31T22:07:51.289Z,100730.50
2024-01-31T22:10:17.739Z,100731.75
2024-01-31T22:12:44.159Z,100726.88
2024-01-31T22:15:10.669Z,100727.03
2024-01-31T22:17:37.175Z,100734.28
2024-01-31T22:20:04.016Z,100726.69
2024-01-31T22:22:30.697Z,100729.50
2024-01-31T22:24:57.372Z,100722.66
2024-01-31T22:27:23.857Z,100711.50
2024-01-31T22:29:50.330Z,100698.50
2024-01-31T22:32:16.818Z,100697.91
2024-01-31T22:34:43.323Z,100699.78
2024-01-31T22:37:09.778Z,100692.44
2024-01-31T22:39:36.228Z,100697.81
2024-01-31T22:42:02.994Z,100695.88
2024-01-31T22:44:29.595Z,100686.59
2024-01-31T22:46:56.044Z,100685.06
2024-01-31T22:49:22.749Z,100674.34
2024-01-31T22:51:49.650Z,100674.59
2024-01-31T22:54:16.154Z,100667.63
2024-01-31T22:56:42.620Z,100660.94
2024-01-31T22:59:09.119Z,100654.50
2024-01-31T23:01:35.544Z,100655.59
2024-01-31T23:04:04.534Z,100652.38
2024-01-31T23:06:31.798Z,100662.00
2024-01-31T23:08:58.552Z,100653.38
2024-01-31T23:11:25.243Z,100637.38
2024-01-31T23:13:51.943Z,100645.66
2024-01-31T23:16:18.395Z,100654.22
2024-01-31T23:18:44.988Z,100634.19
2024-01-31T23:21:11.953Z,100636.81
2024-01-31T23:23:40.589Z,100636.88
2024-01-31T23:26:07.148Z,100647.50
2024-01-31T23:28:33.554Z,100633.47
2024-01-31T23:30:59.984Z,100649.16
2024-01-31T23:33:26.522Z,100650.25
2024-01-31T23:35:53.067Z,100649.34
2024-01-31T23:38:19.935Z,100658.09
2024-01-31T23:40:46.371Z,100664.09
2024-01-31T23:43:12.779Z,100656.94
2024-01-31T23:45:39.387Z,100650.03
2024-01-31T23:48:06.565Z,100649.16
2024-01-31T23:50:33.193Z,100654.41
2024-01-31T23:52:59.682Z,100653.38
2024-01-31T23:55:26.523Z,100650.78
2024-01-31T23:57:52.951Z,100651.31
